createdAt,value
2023-04-13T00:03:37.554Z,5.70
2023-04-13T00:08:44.527Z,5.70
2023-04-13T00:13:49.890Z,5.70
2023-04-13T00:18:55.083Z,5.60
2023-04-13T00:24:00.693Z,5.50
2023-04-13T00:29:06.705Z,5.50
2023-04-13T00:34:13.135Z,5.40
2023-04-13T00:39:20.039Z,5.40
2023-04-13T00:44:26.880Z,5.30
2023-04-13T00:49:37.147Z,5.20
2023-04-13T00:54:43.895Z,5.10
2023-04-13T00:59:49.795Z,5.10
2023-04-13T01:04:57.729Z,5.00
2023-04-13T01:10:31.036Z,5.00
2023-04-13T01:15:43.670Z,5.10
2023-04-13T01:20:50.970Z,5.10
2023-04-13T01:26:02.203Z,5.10
2023-04-13T01:31:17.332Z,5.10
2023-04-13T01:36:23.262Z,5.10
2023-04-13T01:41:28.391Z,5.10
2023-04-13T01:46:38.572Z,5.10
2023-04-13T01:51:47.258Z,5.00
2023-04-13T01:56:57.533Z,5.00
2023-04-13T02:08:10.491Z,4.90
2023-04-13T02:13:18.220Z,4.80
2023-04-13T02:18:24.040Z,4.80
2023-04-13T02:23:29.289Z,4.80
2023-04-13T02:28:36.292Z,4.80
2023-04-13T02:33:41.411Z,4.80
2023-04-13T02:38:46.984Z,4.80
2023-04-13T02:43:53.870Z,4.90
2023-04-13T02:48:59.254Z,4.90
2023-04-13T02:54:05.599Z,5.00
2023-04-13T02:59:10.837Z,5.00
2023-04-13T03:04:16.102Z,5.10
2023-04-13T03:09:23.339Z,5.10
2023-04-13T03:14:32.724Z,5.10
2023-04-13T03:19:44.456Z,5.10
2023-04-13T03:24:50.990Z,5.10
2023-04-13T03:29:58.798Z,5.10
2023-04-13T03:35:08.627Z,5.20
2023-04-13T03:40:16.039Z,5.10
2023-04-13T03:45:24.158Z,5.20
2023-04-13T03:50:42.920Z,5.20
2023-04-13T04:01:44.675Z,5.20
2023-04-13T04:06:56.305Z,5.20
2023-04-13T04:12:13.142Z,5.10
2023-04-13T04:17:22.351Z,5.10
2023-04-13T04:22:29.260Z,4.90
2023-04-13T04:27:41.228Z,4.90
2023-04-13T04:32:59.430Z,4.90
2023-04-13T04:43:40.754Z,4.90
2023-04-13T04:48:59.552Z,4.90
2023-04-13T04:54:05.563Z,4.90
2023-04-13T04:59:25.439Z,5.00
2023-04-13T05:04:48.193Z,5.10
2023-04-13T05:10:22.538Z,5.20
2023-04-13T05:15:56.148Z,5.50
2023-04-13T05:21:20.229Z,5.70
2023-04-13T05:26:25.643Z,6.00
2023-04-13T05:31:31.140Z,6.20
2023-04-13T05:36:36.579Z,6.40
2023-04-13T05:41:43.661Z,6.70
2023-04-13T05:46:54.208Z,6.90
2023-04-13T05:51:59.514Z,7.30
2023-04-13T05:57:04.929Z,7.60
2023-04-13T06:02:11.581Z,8.10
2023-04-13T06:07:18.264Z,8.40
2023-04-13T06:12:24.490Z,8.80
2023-04-13T06:17:32.183Z,8.60
2023-04-13T06:22:45.931Z,8.50
2023-04-13T06:27:53.305Z,8.70
2023-04-13T06:33:09.059Z,8.90
2023-04-13T06:38:25.305Z,9.20
2023-04-13T06:43:36.726Z,9.80
2023-04-13T06:48:43.628Z,11.00
2023-04-13T06:53:57.774Z,11.70
2023-04-13T06:59:03.434Z,12.30
2023-04-13T07:04:09.216Z,12.20
2023-04-13T07:09:14.638Z,12.00
2023-04-13T07:14:19.997Z,11.80
2023-04-13T07:19:26.254Z,11.80
2023-04-13T07:24:36.894Z,11.80
2023-04-13T07:29:42.312Z,12.00
2023-04-13T07:34:48.266Z,12.20
2023-04-13T07:39:56.564Z,12.80
2023-04-13T07:45:08.217Z,12.90
2023-04-13T07:50:18.076Z,13.00
2023-04-13T07:55:26.525Z,13.50
2023-04-13T08:00:36.018Z,13.80
2023-04-13T08:05:44.328Z,13.90
2023-04-13T08:10:51.372Z,14.50
2023-04-13T08:15:58.302Z,15.20
2023-04-13T08:21:05.251Z,16.20
2023-04-13T08:26:19.112Z,16.20
2023-04-13T08:31:26.697Z,17.00
2023-04-13T08:36:40.772Z,16.60
2023-04-13T08:41:59.644Z,15.20
2023-04-13T08:47:10.174Z,14.90
2023-04-13T08:52:21.165Z,14.60
2023-04-13T08:57:39.488Z,15.20
2023-04-13T09:03:03.048Z,15.50
2023-04-13T09:08:14.447Z,16.80
2023-04-13T09:13:32.378Z,16.70
2023-04-13T09:18:38.745Z,16.60
2023-04-13T09:23:57.954Z,16.30
2023-04-13T09:29:08.494Z,16.80
2023-04-13T09:34:16.674Z,16.80
2023-04-13T09:39:33.576Z,16.20
2023-04-13T09:44:47.324Z,16.20
2023-04-13T09:49:53.920Z,16.20
2023-04-13T09:55:02.987Z,15.90
2023-04-13T10:00:18.934Z,15.70
2023-04-13T10:05:39.278Z,16.10
2023-04-13T10:10:48.297Z,16.50
2023-04-13T10:16:15.500Z,16.60
2023-04-13T10:21:26.418Z,16.70
2023-04-13T10:26:37.713Z,17.00
2023-04-13T10:31:49.231Z,16.70
2023-04-13T10:36:57.853Z,17.00
2023-04-13T10:42:07.845Z,16.90
2023-04-13T10:47:23.599Z,18.00
2023-04-13T10:52:29.659Z,18.70
2023-04-13T10:57:39.495Z,17.50
2023-04-13T11:02:59.239Z,17.20
2023-04-13T11:08:07.292Z,17.20
2023-04-13T11:13:12.703Z,17.80
2023-04-13T11:18:32.899Z,18.20
2023-04-13T11:23:42.203Z,18.20
2023-04-13T11:28:48.699Z,18.00
2023-04-13T11:33:58.700Z,18.20
2023-04-13T11:39:09.014Z,17.60
2023-04-13T11:44:14.912Z,17.30
2023-04-13T11:49:23.909Z,17.80
2023-04-13T11:54:32.874Z,18.10
2023-04-13T12:00:08.396Z,18.20
2023-04-13T12:05:07.453Z,17.80
2023-04-13T12:10:23.328Z,18.30
2023-04-13T12:15:45.644Z,18.50
2023-04-13T12:20:54.123Z,17.80
2023-04-13T12:26:41.150Z,18.00
2023-04-13T12:37:03.066Z,17.70
2023-04-13T12:42:15.251Z,17.90
2023-04-13T12:47:28.328Z,17.60
2023-04-13T12:52:50.244Z,17.30
2023-04-13T12:58:00.463Z,17.40
2023-04-13T13:03:14.241Z,17.20
2023-04-13T13:08:17.202Z,17.60
2023-04-13T13:13:35.109Z,17.80
2023-04-13T13:18:53.278Z,17.80
2023-04-13T13:29:57.213Z,17.90
2023-04-13T13:35:14.351Z,18.20
2023-04-13T13:40:23.561Z,18.30
2023-04-13T13:45:44.320Z,18.10
2023-04-13T13:51:01.200Z,17.70
2023-04-13T13:56:21.347Z,17.70
2023-04-13T14:01:42.125Z,17.90
2023-04-13T14:06:57.226Z,18.20
2023-04-13T14:12:08.451Z,18.60
2023-04-13T14:17:17.967Z,18.40
2023-04-13T14:22:23.244Z,17.80
2023-04-13T14:27:30.062Z,17.70
2023-04-13T14:32:37.091Z,17.50
2023-04-13T14:37:44.129Z,17.40
2023-04-13T14:42:52.552Z,17.20
2023-04-13T14:47:58.688Z,17.10
2023-04-13T14:53:12.577Z,17.10
2023-04-13T14:58:20.506Z,16.80
2023-04-13T15:03:30.109Z,16.50
2023-04-13T15:08:40.281Z,16.30
2023-04-13T15:13:52.023Z,16.00
2023-04-13T15:19:13.694Z,15.80
2023-04-13T15:24:31.152Z,15.60
2023-04-13T15:29:46.193Z,15.70
2023-04-13T15:35:03.842Z,15.70
2023-04-13T15:40:11.560Z,15.80
2023-04-13T15:45:29.957Z,15.90
2023-04-13T15:50:35.321Z,15.90
2023-04-13T15:55:42.710Z,15.90
2023-04-13T16:01:01.755Z,15.80
2023-04-13T16:06:08.895Z,15.60
2023-04-13T16:11:15.409Z,15.50
2023-04-13T16:16:21.257Z,15.30
2023-04-13T16:21:33.641Z,15.10
2023-04-13T16:26:42.867Z,15.00
2023-04-13T16:31:51.549Z,14.90
2023-04-13T16:37:08.841Z,14.80
2023-04-13T16:42:16.163Z,14.60
2023-04-13T16:47:21.564Z,14.50
2023-04-13T16:52:58.940Z,14.40
2023-04-13T16:58:20.168Z,14.20
2023-04-13T17:03:24.238Z,14.20
2023-04-13T17:08:33.292Z,14.10
2023-04-13T17:13:57.585Z,13.90
2023-04-13T17:19:17.355Z,13.80
2023-04-13T17:24:23.520Z,13.70
2023-04-13T17:29:30.871Z,13.50
2023-04-13T17:34:36.178Z,13.40
2023-04-13T17:39:46.650Z,13.20
2023-04-13T17:45:06.345Z,13.10
2023-04-13T17:50:40.126Z,13.00
2023-04-13T17:56:04.126Z,12.90
2023-04-13T18:01:11.459Z,12.80
2023-04-13T18:06:17.280Z,12.70
2023-04-13T18:11:23.992Z,12.60
2023-04-13T18:16:32.205Z,12.60
2023-04-13T18:21:40.247Z,12.50
2023-04-13T18:26:45.639Z,12.50
2023-04-13T18:32:07.492Z,12.40
2023-04-13T18:37:14.517Z,12.40
2023-04-13T18:42:29.533Z,12.30
2023-04-13T18:47:40.882Z,12.20
2023-04-13T18:52:43.528Z,12.30
2023-04-13T18:57:48.705Z,12.30
2023-04-13T19:02:54.030Z,12.30
2023-04-13T19:08:01.419Z,12.10
2023-04-13T19:13:11.870Z,12.10
2023-04-13T19:18:19.438Z,11.90
2023-04-13T19:23:27.673Z,11.90
2023-04-13T19:28:36.007Z,11.80
2023-04-13T19:33:42.056Z,11.70
2023-04-13T19:38:48.187Z,11.70
2023-04-13T19:43:58.803Z,11.60
2023-04-13T19:49:08.592Z,11.60
2023-04-13T19:59:49.252Z,11.40
2023-04-13T20:05:01.996Z,11.30
2023-04-13T20:10:13.656Z,11.20
2023-04-13T20:15:35.964Z,11.10
2023-04-13T20:20:54.073Z,10.90
2023-04-13T20:25:59.497Z,10.90
2023-04-13T20:31:22.794Z,10.80
2023-04-13T20:36:28.204Z,10.80
2023-04-13T20:41:35.241Z,10.70
2023-04-13T20:46:51.818Z,10.60
2023-04-13T20:52:02.112Z,10.60
2023-04-13T20:57:14.284Z,10.60
2023-04-13T21:02:29.262Z,10.60
2023-04-13T21:07:43.491Z,10.60
2023-04-13T21:12:51.058Z,10.60
2023-04-13T21:18:00.089Z,10.60
2023-04-13T21:23:16.643Z,10.60
2023-04-13T21:28:30.741Z,10.60
2023-04-13T21:34:04.724Z,10.50
2023-04-13T21:39:16.347Z,10.40
2023-04-13T21:44:30.360Z,10.40
2023-04-13T21:49:42.526Z,10.40
2023-04-13T21:54:50.234Z,10.40
2023-04-13T21:59:59.124Z,10.40
2023-04-13T22:05:16.956Z,10.40
2023-04-13T22:10:26.466Z,10.40
2023-04-13T22:15:42.022Z,10.30
2023-04-13T22:20:53.681Z,10.30
2023-04-13T22:26:07.712Z,10.20
2023-04-13T22:31:33.211Z,10.20
2023-04-13T22:36:48.484Z,10.20
2023-04-13T22:41:57.672Z,10.20
2023-04-13T22:47:08.043Z,10.20
2023-04-13T22:52:30.816Z,10.30
2023-04-13T22:57:53.743Z,10.20
2023-04-13T23:08:44.928Z,10.20
2023-04-13T23:14:01.209Z,10.20
2023-04-13T23:19:15.087Z,10.00
2023-04-13T23:24:41.650Z,9.90
2023-04-13T23:29:58.125Z,9.80
2023-04-13T23:35:08.125Z,9.80
2023-04-13T23:40:34.963Z,9.80
2023-04-13T23:45:38.864Z,9.80
2023-04-13T23:50:56.157Z,9.80
2023-04-13T23:56:16.916Z,9.70
